Terminal Aerodrome Forecast
Issued by NWS Shreveport, LA

Home | Current Version | Previous Version | Text Only | Print | Product List | Glossary On
Versions: 1 2 3 4 5 6 7 8 9 10 11 12 13 14 15 16 17 18 19 20
911
FTUS44 KSHV 161142
TAFELD
TAF
KELD 161142Z 1612/1712 14005KT P6SM VCSH OVC014
     FM161400 15008KT P6SM -RA OVC012
     FM161800 17011KT P6SM VCSH OVC015
     FM162100 18010KT P6SM VCSH OVC023
     FM170000 16005KT P6SM VCSH BKN025
     FM170400 20004KT P6SM VCSH OVC015
     FM170900 27004KT 5SM BR VCSH OVC007=

USA.gov is the U.S. government's official web portal to all federal, state and local government web resources and services.